createdAt,value
2023-01-25T00:03:06.355Z,101417.13
2023-01-25T00:08:28.806Z,101414.81
2023-01-25T00:13:54.472Z,101385.34
2023-01-25T00:19:16.422Z,101421.75
2023-01-25T00:24:38.659Z,101393.22
2023-01-25T00:30:00.710Z,101385.50
2023-01-25T00:35:23.359Z,101385.38
2023-01-25T00:40:45.808Z,101394.72
2023-01-25T00:46:08.105Z,101404.47
2023-01-25T00:51:31.978Z,101407.56
2023-01-25T00:56:56.967Z,101381.56
2023-01-25T01:02:19.399Z,101366.41
2023-01-25T01:07:41.714Z,101375.28
2023-01-25T01:13:06.912Z,101356.53
2023-01-25T01:18:36.000Z,101359.50
2023-01-25T01:23:58.424Z,101355.88
2023-01-25T01:29:21.138Z,101392.78
2023-01-25T01:34:46.106Z,101356.88
2023-01-25T01:40:09.541Z,101370.25
2023-01-25T01:45:50.552Z,101392.63
2023-01-25T01:51:25.060Z,101366.06
2023-01-25T01:57:13.221Z,101335.44
2023-01-25T02:02:36.687Z,101325.53
2023-01-25T02:08:04.675Z,101327.16
2023-01-25T02:13:29.232Z,101336.25
2023-01-25T02:18:52.109Z,101333.78
2023-01-25T02:24:33.969Z,101320.63
2023-01-25T02:29:56.776Z,101345.31
2023-01-25T02:35:24.754Z,101332.78
2023-01-25T02:40:56.670Z,101338.72
2023-01-25T02:46:24.874Z,101359.03
2023-01-25T02:51:50.654Z,101323.78
2023-01-25T02:57:12.812Z,101334.81
2023-01-25T03:02:37.863Z,101360.13
2023-01-25T03:08:00.831Z,101360.00
2023-01-25T03:13:23.180Z,101361.13
2023-01-25T03:18:45.828Z,101367.56
2023-01-25T03:24:13.029Z,101365.31
2023-01-25T03:29:40.716Z,101370.41
2023-01-25T03:35:07.656Z,101370.41
2023-01-25T03:40:30.551Z,101368.72
2023-01-25T03:45:58.448Z,101367.91
2023-01-25T03:51:21.137Z,101375.19
2023-01-25T03:56:43.262Z,101375.19
2023-01-25T04:08:55.558Z,101361.13
2023-01-25T04:14:59.269Z,101349.31
2023-01-25T04:20:21.937Z,101364.78
2023-01-25T04:25:44.501Z,101363.47
2023-01-25T04:31:11.747Z,101354.91
2023-01-25T04:36:36.100Z,101345.31
2023-01-25T04:41:58.358Z,101358.19
2023-01-25T04:47:20.560Z,101350.78
2023-01-25T04:52:42.708Z,101362.97
2023-01-25T04:58:05.175Z,101365.94
2023-01-25T05:03:28.857Z,101377.97
2023-01-25T05:08:51.410Z,101390.00
2023-01-25T05:14:14.085Z,101390.50
2023-01-25T05:19:38.719Z,101375.97
2023-01-25T05:25:04.305Z,101382.41
2023-01-25T05:30:30.084Z,101384.22
2023-01-25T05:36:00.361Z,101367.09
2023-01-25T05:41:27.688Z,101365.06
2023-01-25T05:46:52.377Z,101368.03
2023-01-25T05:52:15.763Z,101355.31
2023-01-25T05:57:39.084Z,101353.34
2023-01-25T06:03:03.913Z,101333.09
2023-01-25T06:08:31.578Z,101330.28
2023-01-25T06:13:53.791Z,101319.84
2023-01-25T06:19:16.495Z,101304.38
2023-01-25T06:24:43.941Z,101306.31
2023-01-25T06:30:17.531Z,101306.63
2023-01-25T06:35:41.110Z,101311.84
2023-01-25T06:41:09.133Z,101319.56
2023-01-25T06:46:34.274Z,101302.28
2023-01-25T06:51:56.505Z,101310.41
2023-01-25T06:57:18.717Z,101309.53
2023-01-25T07:02:40.790Z,101308.78
2023-01-25T07:08:02.708Z,101303.94
2023-01-25T07:13:26.065Z,101293.03
2023-01-25T07:18:48.840Z,101276.19
2023-01-25T07:24:16.915Z,101306.59
2023-01-25T07:29:38.708Z,101308.06
2023-01-25T07:35:03.121Z,101297.38
2023-01-25T07:40:25.840Z,101302.47
2023-01-25T07:45:50.601Z,101311.63
2023-01-25T07:51:13.660Z,101305.88
2023-01-25T07:56:41.308Z,101278.53
2023-01-25T08:02:04.057Z,101298.44
2023-01-25T08:07:26.347Z,101284.59
2023-01-25T08:12:48.576Z,101283.03
2023-01-25T08:18:13.366Z,101303.06
2023-01-25T08:23:35.738Z,101294.78
2023-01-25T08:29:01.570Z,101278.91
2023-01-25T08:34:26.379Z,101276.88
2023-01-25T08:39:48.736Z,101264.69
2023-01-25T08:45:11.656Z,101269.06
2023-01-25T08:50:36.640Z,101280.75
2023-01-25T08:56:04.517Z,101279.38
2023-01-25T09:01:26.501Z,101275.44
2023-01-25T09:06:49.193Z,101259.66
2023-01-25T09:12:11.522Z,101256.66
2023-01-25T09:17:33.799Z,101238.13
2023-01-25T09:22:56.792Z,101220.66
2023-01-25T09:28:18.808Z,101221.91
2023-01-25T09:33:41.820Z,101210.00
2023-01-25T09:39:04.376Z,101190.84
2023-01-25T09:44:45.681Z,101176.16
2023-01-25T09:50:17.060Z,101178.44
2023-01-25T09:55:40.295Z,101144.59
2023-01-25T10:01:44.101Z,101140.44
2023-01-25T10:07:40.805Z,101157.91
2023-01-25T10:13:09.062Z,101134.66
2023-01-25T10:18:55.729Z,101155.91
2023-01-25T10:24:40.881Z,101152.63
2023-01-25T10:30:29.177Z,101115.81
2023-01-25T10:35:51.959Z,101119.72
2023-01-25T10:41:27.676Z,101121.28
2023-01-25T10:46:52.831Z,101142.41
2023-01-25T10:52:18.689Z,101106.97
2023-01-25T10:57:48.653Z,101112.16
2023-01-25T11:03:20.621Z,101097.50
2023-01-25T11:08:43.601Z,101084.00
2023-01-25T11:14:18.839Z,101083.00
2023-01-25T11:19:45.349Z,101081.44
2023-01-25T11:25:25.204Z,101083.06
2023-01-25T11:30:48.339Z,101071.53
2023-01-25T11:36:29.030Z,101046.94
2023-01-25T11:42:00.835Z,101049.19
2023-01-25T11:47:44.089Z,101048.75
2023-01-25T11:53:18.258Z,101044.13
2023-01-25T11:59:01.054Z,101044.94
2023-01-25T12:04:34.970Z,101035.91
2023-01-25T12:10:22.715Z,101027.38
2023-01-25T12:16:09.832Z,101030.91
2023-01-25T12:22:00.161Z,101039.56
2023-01-25T12:27:40.516Z,101038.66
2023-01-25T12:33:26.078Z,101026.81
2023-01-25T12:39:04.968Z,101027.53
2023-01-25T12:44:35.732Z,101024.34
2023-01-25T12:50:04.908Z,101012.78
2023-01-25T12:55:27.593Z,100986.28
2023-01-25T13:01:08.763Z,100979.84
2023-01-25T13:06:56.323Z,100999.50
2023-01-25T13:12:18.468Z,100962.25
2023-01-25T13:17:41.206Z,100951.78
2023-01-25T13:23:03.633Z,100944.94
2023-01-25T13:28:46.368Z,100940.94
2023-01-25T13:34:45.713Z,100932.47
2023-01-25T13:40:33.109Z,100928.22
2023-01-25T13:45:55.423Z,100897.63
2023-01-25T13:51:21.607Z,100908.56
2023-01-25T14:02:31.877Z,100890.44
2023-01-25T14:07:56.629Z,100898.25
2023-01-25T14:13:19.619Z,100886.94
2023-01-25T14:18:43.646Z,100883.69
2023-01-25T14:24:12.205Z,100870.13
2023-01-25T14:41:26.570Z,100856.50
2023-01-25T14:46:48.619Z,100850.63
2023-01-25T14:52:16.800Z,100853.78
2023-01-25T14:57:41.531Z,100822.69
2023-01-25T15:03:07.579Z,100810.13
2023-01-25T15:08:43.267Z,100827.66
2023-01-25T15:14:20.927Z,100834.72
2023-01-25T15:19:53.124Z,100804.09
2023-01-25T15:25:19.000Z,100807.25
2023-01-25T15:30:48.114Z,100773.47
2023-01-25T15:36:10.726Z,100778.19
2023-01-25T15:41:33.137Z,100779.06
2023-01-25T15:46:58.014Z,100765.59
2023-01-25T15:52:21.156Z,100759.56
2023-01-25T15:58:58.651Z,100782.91
2023-01-25T16:04:11.637Z,100783.72
2023-01-25T16:09:33.919Z,100755.03
2023-01-25T16:14:55.824Z,100746.72
2023-01-25T16:20:21.802Z,100762.25
2023-01-25T16:25:44.877Z,100749.59
2023-01-25T16:31:07.194Z,100745.59
2023-01-25T16:36:29.723Z,100723.84
2023-01-25T16:41:52.058Z,100699.03
2023-01-25T16:47:15.817Z,100703.13
2023-01-25T16:52:37.931Z,100690.69
2023-01-25T16:58:00.522Z,100678.50
2023-01-25T17:03:22.730Z,100689.34
2023-01-25T17:08:48.733Z,100676.56
2023-01-25T17:14:16.602Z,100655.78
2023-01-25T17:19:42.349Z,100668.22
2023-01-25T17:25:08.036Z,100649.88
2023-01-25T17:30:30.550Z,100646.88
2023-01-25T17:35:59.957Z,100651.38
2023-01-25T17:41:22.368Z,100652.59
2023-01-25T17:46:44.746Z,100622.09
2023-01-25T17:52:07.952Z,100623.31
2023-01-25T17:57:31.766Z,100649.44
2023-01-25T18:02:55.221Z,100642.44
2023-01-25T18:08:17.575Z,100599.03
2023-01-25T18:13:40.996Z,100636.34
2023-01-25T18:19:03.940Z,100642.50
2023-01-25T18:24:32.231Z,100639.69
2023-01-25T18:30:00.397Z,100620.97
2023-01-25T18:35:22.672Z,100609.56
2023-01-25T18:40:44.524Z,100597.16
2023-01-25T18:46:06.467Z,100596.53
2023-01-25T18:51:29.935Z,100572.88
2023-01-25T18:56:55.039Z,100605.47
2023-01-25T19:02:20.421Z,100600.56
2023-01-25T19:07:42.731Z,100593.28
2023-01-25T19:13:04.858Z,100600.41
2023-01-25T19:18:31.163Z,100595.13
2023-01-25T19:23:54.152Z,100579.84
2023-01-25T19:29:16.554Z,100574.97
2023-01-25T19:34:39.580Z,100578.44
2023-01-25T19:40:01.341Z,100576.63
2023-01-25T19:45:24.501Z,100553.41
2023-01-25T19:50:46.647Z,100539.19
2023-01-25T19:56:48.648Z,100517.38
2023-01-25T20:02:25.903Z,100512.50
2023-01-25T20:07:48.336Z,100527.81
2023-01-25T20:13:10.808Z,100525.13
2023-01-25T20:18:34.105Z,100525.97
2023-01-25T20:24:00.683Z,100522.50
2023-01-25T20:29:24.490Z,100531.66
2023-01-25T20:34:46.596Z,100513.16
2023-01-25T20:40:09.716Z,100488.09
2023-01-25T20:45:33.949Z,100485.69
2023-01-25T20:51:03.871Z,100473.47
2023-01-25T20:56:28.659Z,100483.44
2023-01-25T21:01:51.107Z,100469.19
2023-01-25T21:07:13.579Z,100474.91
2023-01-25T21:12:35.717Z,100474.72
2023-01-25T21:17:57.677Z,100475.75
2023-01-25T21:23:19.532Z,100481.03
2023-01-25T21:28:44.409Z,100462.72
2023-01-25T21:34:07.390Z,100459.25
2023-01-25T21:39:29.535Z,100465.34
2023-01-25T21:45:10.540Z,100440.56
2023-01-25T21:50:51.190Z,100435.44
2023-01-25T21:56:47.882Z,100385.00
2023-01-25T22:02:15.375Z,100416.53
2023-01-25T22:07:40.406Z,100405.34
2023-01-25T22:13:05.218Z,100404.34
2023-01-25T22:18:36.235Z,100387.47
2023-01-25T22:24:03.377Z,100386.03
2023-01-25T22:29:26.117Z,100372.22
2023-01-25T22:34:51.089Z,100359.41
2023-01-25T22:40:14.040Z,100354.53
2023-01-25T22:45:36.688Z,100357.56
2023-01-25T22:51:10.448Z,100357.16
2023-01-25T22:56:35.473Z,100369.75
2023-01-25T23:01:57.926Z,100335.41
2023-01-25T23:07:19.826Z,100333.78
2023-01-25T23:12:42.417Z,100336.19
2023-01-25T23:18:23.028Z,100306.94
2023-01-25T23:23:45.478Z,100345.16
2023-01-25T23:29:13.176Z,100348.19
2023-01-25T23:34:40.722Z,100333.75
2023-01-25T23:40:03.261Z,100301.25
2023-01-25T23:45:25.946Z,100290.28
2023-01-25T23:50:47.795Z,100329.28
2023-01-25T23:56:14.709Z,100286.59
